Time;durP1;ratioP1;P1;durP2;ratioP2;P2;SDS_P1;SDS_P2;PMS_P1;PMS_P2;Temp;Humidity;BMP_temperature;BMP_pressure;BME280_temperature;BME280_humidity;BME280_pressure;Samples;Min_cycle;Max_cycle;Signal;HPM_P1;HPM_P2
2021/10/17 00:01:35;;;;;;;;;;;;;;;22.28;31.69;97873.06;5055595;28;907;-77
2021/10/17 00:04:00;;;;;;;;;;;;;;;23.07;30.58;97908.19;5055643;28;962;-77
2021/10/17 00:06:29;;;;;;;;;;;;;;;22.65;31.35;97905.47;5072450;28;1030;-77
2021/10/17 00:08:55;;;;;;;;;;;;;;;22.66;31.57;97909.91;5035593;28;1337;-77
2021/10/17 00:11:20;;;;;;;;;;;;;;;22.83;30.68;97905.69;5036094;28;918;-77
2021/10/17 00:16:29;;;;;;;;;;;;;;;23.82;30.62;97894.94;5044131;28;1257;-79
2021/10/17 00:18:54;;;;;;;;;;;;;;;23.36;30.78;97896.59;5045700;28;766;-78
2021/10/17 00:21:20;;;;;;;;;;;;;;;23.03;30.85;97896.16;5046948;28;777;-79
2021/10/17 00:23:45;;;;;;;;;;;;;;;22.80;31.20;97905.81;5042469;28;1129;-81
2021/10/17 00:26:10;;;;;;;;;;;;;;;22.56;31.33;97905.38;5045684;28;871;-82
2021/10/17 00:28:37;;;;;;;;;;;;;;;22.44;31.95;97900.50;5022179;28;1115;-80
2021/10/17 00:31:03;;;;;;;;;;;;;;;22.56;31.74;97911.03;4966942;29;1459;-81
2021/10/17 00:33:29;;;;;;;;;;;;;;;22.52;31.38;97901.84;4963332;29;1985;-80
2021/10/17 00:35:54;;;;;;;;;;;;;;;22.52;31.62;97910.34;4966968;29;961;-81
2021/10/17 00:38:19;;;;;;;;;;;;;;;22.31;31.82;97898.44;4963572;29;1228;-81
2021/10/17 00:40:45;;;;;;;;;;;;;;;22.23;31.79;97899.91;4928950;29;871;-81
2021/10/17 00:43:10;;;;;;;;;;;;;;;22.37;31.71;97901.50;4925690;29;1070;-81
2021/10/17 00:45:36;;;;;;;;;;;;;;;22.43;31.84;97898.88;4927896;29;950;-81
2021/10/17 00:48:04;;;;;;;;;;;;;;;22.29;32.46;97903.78;4907722;29;1291;-81
2021/10/17 00:50:30;;;;;;;;;;;;;;;22.39;32.33;97904.69;4908215;29;949;-81
2021/10/17 00:52:55;;;;;;;;;;;;;;;22.48;32.34;97901.16;4888856;29;1903;-81
2021/10/17 00:55:22;;;;;;;;;;;;;;;22.59;32.02;97907.31;4889085;29;1055;-81
2021/10/17 00:57:48;;;;;;;;;;;;;;;22.58;32.07;97911.38;4869925;29;1197;-81
2021/10/17 01:00:13;;;;;;;;;;;;;;;22.95;31.30;97900.47;4884445;29;918;-80
2021/10/17 01:02:39;;;;;;;;;;;;;;;22.79;31.64;97907.81;4903793;29;968;-81
2021/10/17 01:05:05;;;;;;;;;;;;;;;22.54;32.11;97910.72;4906582;29;886;-81
2021/10/17 01:07:30;;;;;;;;;;;;;;;22.97;31.33;97904.44;4910469;29;854;-81
2021/10/17 01:09:55;;;;;;;;;;;;;;;23.25;30.97;97896.97;4944606;29;1355;-81
2021/10/17 01:12:22;;;;;;;;;;;;;;;22.83;31.27;97905.69;4917686;29;1907;-81
2021/10/17 01:14:48;;;;;;;;;;;;;;;22.85;31.00;97897.53;4906304;29;1553;-81
2021/10/17 01:17:14;;;;;;;;;;;;;;;22.95;30.50;97900.47;4946988;29;1136;-81
2021/10/17 01:19:45;;;;;;;;;;;;;;;22.63;30.83;97893.78;4948159;29;1684;-80
2021/10/17 01:22:14;;;;;;;;;;;;;;;22.58;31.05;97905.69;4966543;29;1298;-82
2021/10/17 01:24:39;;;;;;;;;;;;;;;22.57;31.08;97904.09;4944351;29;1211;-80
2021/10/17 01:27:04;;;;;;;;;;;;;;;22.51;30.89;97903.09;4930457;29;1303;-81
2021/10/17 01:29:30;;;;;;;;;;;;;;;22.39;30.91;97899.03;4944257;29;1275;-81
2021/10/17 01:31:56;;;;;;;;;;;;;;;22.38;31.10;97905.13;4931041;29;1907;-81
2021/10/17 01:34:27;;;;;;;;;;;;;;;22.34;30.87;97903.22;4928783;29;1164;-81
2021/10/17 01:36:53;;;;;;;;;;;;;;;21.87;32.39;97894.50;4947059;29;842;-81
2021/10/17 01:39:20;;;;;;;;;;;;;;;22.07;32.66;97900.78;4940227;29;1227;-81
2021/10/17 01:41:46;;;;;;;;;;;;;;;22.71;31.21;97909.31;4913949;29;1438;-81
2021/10/17 01:44:15;;;;;;;;;;;;;;;22.90;30.93;97901.03;4906469;29;1078;-81
2021/10/17 01:46:41;;;;;;;;;;;;;;;22.81;30.97;97896.84;4908748;29;1718;-81
2021/10/17 01:49:07;;;;;;;;;;;;;;;22.76;31.02;97891.75;4893870;29;1444;-81
2021/10/17 01:51:39;;;;;;;;;;;;;;;22.54;31.08;97902.19;4874801;29;1341;-81
2021/10/17 01:54:05;;;;;;;;;;;;;;;23.32;30.27;97885.41;4884987;29;1884;-81
2021/10/17 01:56:31;;;;;;;;;;;;;;;22.80;30.83;97889.59;4871509;29;1102;-81
2021/10/17 01:58:57;;;;;;;;;;;;;;;23.45;30.00;97888.16;4869473;29;1175;-81
2021/10/17 02:01:23;;;;;;;;;;;;;;;22.69;31.32;97900.50;4872032;29;1130;-81
2021/10/17 02:03:49;;;;;;;;;;;;;;;22.53;31.52;97897.75;4869677;29;1439;-81
2021/10/17 02:06:15;;;;;;;;;;;;;;;23.21;29.94;97896.34;4869758;29;1180;-81
2021/10/17 02:08:42;;;;;;;;;;;;;;;22.92;29.96;97885.16;4866171;29;1267;-81
2021/10/17 02:11:08;;;;;;;;;;;;;;;22.73;30.51;97898.31;4853778;29;986;-80
2021/10/17 02:13:34;;;;;;;;;;;;;;;22.61;30.42;97904.78;4869041;29;2003;-81
2021/10/17 02:16:00;;;;;;;;;;;;;;;22.66;30.22;97898.56;4884009;29;1159;-81
2021/10/17 02:18:26;;;;;;;;;;;;;;;22.51;30.72;97903.09;4890273;29;1232;-80
2021/10/17 02:20:52;;;;;;;;;;;;;;;22.50;30.69;97910.00;4943872;29;1306;-81
2021/10/17 02:23:17;;;;;;;;;;;;;;;22.22;30.99;97908.84;4928721;29;1360;-80
2021/10/17 02:25:48;;;;;;;;;;;;;;;22.33;31.62;97918.63;4915514;29;1416;-81
2021/10/17 02:28:14;;;;;;;;;;;;;;;22.50;31.47;97921.34;4872155;29;1323;-82
2021/10/17 02:30:46;;;;;;;;;;;;;;;22.55;31.05;97927.25;4829180;29;1178;-81
2021/10/17 02:33:25;;;;;;;;;;;;;;;22.69;30.92;97928.84;4852727;29;1888;-81
2021/10/17 02:35:51;;;;;;;;;;;;;;;23.18;30.41;97913.47;4856241;29;1280;-81
2021/10/17 02:38:16;;;;;;;;;;;;;;;23.00;30.40;97926.25;4855142;29;1240;-82
2021/10/17 02:40:42;;;;;;;;;;;;;;;22.95;30.44;97923.97;4856807;29;1237;-81
2021/10/17 02:43:10;;;;;;;;;;;;;;;22.54;31.13;97930.56;4853212;29;1643;-81
2021/10/17 02:45:36;;;;;;;;;;;;;;;23.44;29.47;97934.88;4874888;29;1071;-81
2021/10/17 02:48:02;;;;;;;;;;;;;;;22.81;30.40;97936.56;4835333;29;1299;-82
2021/10/17 02:50:29;;;;;;;;;;;;;;;22.98;30.33;97944.97;4820338;29;1320;-81
2021/10/17 02:52:54;;;;;;;;;;;;;;;23.09;30.06;97934.03;4819081;29;1986;-81
2021/10/17 02:55:23;;;;;;;;;;;;;;;22.88;29.80;97944.84;4834128;29;1317;-81
2021/10/17 02:57:49;;;;;;;;;;;;;;;22.77;30.14;97947.22;4835391;29;1187;-81
2021/10/17 03:00:17;;;;;;;;;;;;;;;22.67;30.07;97948.34;4835082;29;1144;-82
2021/10/17 03:02:47;;;;;;;;;;;;;;;22.56;30.46;97947.91;4799892;29;1518;-81
2021/10/17 03:05:12;;;;;;;;;;;;;;;22.51;30.35;97957.75;4827895;29;1165;-82
2021/10/17 03:07:38;;;;;;;;;;;;;;;22.46;30.63;97946.19;4819828;29;1392;-81
2021/10/17 03:10:06;;;;;;;;;;;;;;;22.48;30.56;97957.84;4788852;29;1322;-81
2021/10/17 03:12:32;;;;;;;;;;;;;;;22.44;30.47;97962.88;4799552;29;1957;-81
2021/10/17 03:14:59;;;;;;;;;;;;;;;22.45;30.41;97953.09;4828229;29;1228;-81
2021/10/17 03:17:25;;;;;;;;;;;;;;;22.26;31.61;97952.84;4817079;29;1460;-81
2021/10/17 03:19:51;;;;;;;;;;;;;;;22.18;31.97;97950.69;4833362;29;1153;-82
2021/10/17 03:22:16;;;;;;;;;;;;;;;22.62;30.84;97952.53;4838034;29;823;-81
2021/10/17 03:24:42;;;;;;;;;;;;;;;22.71;30.87;97949.03;4805857;29;1140;-82
2021/10/17 03:27:07;;;;;;;;;;;;;;;23.35;29.53;97952.59;4837803;29;1422;-82
2021/10/17 03:29:33;;;;;;;;;;;;;;;23.04;30.13;97945.97;4800186;29;1349;-82
2021/10/17 03:32:01;;;;;;;;;;;;;;;23.45;29.53;97949.84;4784122;30;1900;-82
2021/10/17 03:34:27;;;;;;;;;;;;;;;23.51;29.46;97948.00;4781788;30;1032;-82
2021/10/17 03:36:52;;;;;;;;;;;;;;;23.28;29.64;97940.72;4769536;30;962;-82
2021/10/17 03:39:19;;;;;;;;;;;;;;;22.48;30.96;97957.84;4789859;29;1248;-81
2021/10/17 03:41:44;;;;;;;;;;;;;;;23.10;29.69;97946.97;4839237;29;982;-81
2021/10/17 03:44:10;;;;;;;;;;;;;;;23.15;30.19;97949.25;4812158;29;1273;-79
2021/10/17 03:46:36;;;;;;;;;;;;;;;22.78;31.34;97953.69;4864321;29;1191;-79
2021/10/17 03:49:02;;;;;;;;;;;;;;;22.87;31.18;97960.25;4851594;29;1071;-80
2021/10/17 03:51:29;;;;;;;;;;;;;;;23.01;30.98;97958.25;4850047;29;1571;-79
2021/10/17 03:53:59;;;;;;;;;;;;;;;23.03;30.98;97955.75;4848077;29;1915;-79
2021/10/17 03:56:24;;;;;;;;;;;;;;;22.98;31.41;97959.94;4844857;29;1158;-78
2021/10/17 03:58:51;;;;;;;;;;;;;;;23.03;31.35;97970.72;4859018;29;1254;-78
2021/10/17 04:01:17;;;;;;;;;;;;;;;22.94;31.49;97966.97;4903637;29;1250;-80
2021/10/17 04:03:43;;;;;;;;;;;;;;;22.62;31.90;97960.25;4888471;29;1171;-81
2021/10/17 04:06:09;;;;;;;;;;;;;;;22.65;31.50;97967.88;4928785;29;1156;-80
2021/10/17 04:08:36;;;;;;;;;;;;;;;22.71;31.32;97965.25;4925245;29;1038;-81
2021/10/17 04:11:01;;;;;;;;;;;;;;;22.60;31.48;97959.94;4910448;29;1178;-81
2021/10/17 04:13:28;;;;;;;;;;;;;;;22.41;31.51;97958.09;4922234;29;1989;-81
2021/10/17 04:15:54;;;;;;;;;;;;;;;22.43;31.92;97964.09;4925122;29;1317;-80
2021/10/17 04:18:19;;;;;;;;;;;;;;;22.30;32.43;97961.25;4905899;29;949;-81
2021/10/17 04:20:45;;;;;;;;;;;;;;;22.15;33.40;97962.91;4925571;29;1098;-81
2021/10/17 04:23:11;;;;;;;;;;;;;;;22.45;32.43;97970.13;4906887;29;934;-81
2021/10/17 04:25:36;;;;;;;;;;;;;;;22.81;31.77;97964.91;4909213;29;949;-80
2021/10/17 04:28:05;;;;;;;;;;;;;;;22.87;31.61;97974.44;4892727;29;1309;-81
2021/10/17 04:30:31;;;;;;;;;;;;;;;23.17;30.99;97974.34;4908451;29;1122;-80
2021/10/17 04:32:56;;;;;;;;;;;;;;;23.08;30.86;97977.88;4854239;29;1903;-81
2021/10/17 04:35:21;;;;;;;;;;;;;;;22.40;32.07;97984.84;4909284;29;1510;-81
2021/10/17 04:37:47;;;;;;;;;;;;;;;23.24;30.47;97986.25;4875101;29;905;-81
2021/10/17 04:40:14;;;;;;;;;;;;;;;22.36;31.86;97988.59;4855525;29;1147;-81
2021/10/17 04:42:39;;;;;;;;;;;;;;;22.99;30.86;97991.94;4850974;29;1314;-81
2021/10/17 04:45:05;;;;;;;;;;;;;;;22.73;31.13;97991.91;4869507;29;937;-81
2021/10/17 04:47:31;;;;;;;;;;;;;;;22.94;30.23;97989.69;4871812;29;891;-81
2021/10/17 04:49:57;;;;;;;;;;;;;;;22.67;30.40;97993.72;4884340;29;999;-81
2021/10/17 04:52:22;;;;;;;;;;;;;;;22.50;30.78;97989.41;4890849;29;1907;-81
2021/10/17 04:54:47;;;;;;;;;;;;;;;22.54;30.88;98004.28;4888025;29;1361;-81
2021/10/17 04:57:14;;;;;;;;;;;;;;;22.46;30.86;97995.19;4890892;29;1083;-81
2021/10/17 04:59:40;;;;;;;;;;;;;;;22.33;30.87;97998.00;4888301;29;1237;-81
2021/10/17 05:02:07;;;;;;;;;;;;;;;22.34;30.82;98005.25;4904470;29;1229;-81
2021/10/17 05:04:37;;;;;;;;;;;;;;;22.33;31.47;98002.88;4916596;29;1218;-81
2021/10/17 05:07:03;;;;;;;;;;;;;;;22.20;32.23;98004.88;4957385;29;1126;-80
2021/10/17 05:09:28;;;;;;;;;;;;;;;22.55;31.71;98011.53;4925326;29;1221;-81
2021/10/17 05:11:54;;;;;;;;;;;;;;;22.64;31.27;98011.66;4919561;29;1146;-81
2021/10/17 05:14:19;;;;;;;;;;;;;;;22.41;31.83;98009.91;4926711;29;1982;-81
2021/10/17 05:16:45;;;;;;;;;;;;;;;22.50;31.66;98006.41;4927899;29;901;-81
2021/10/17 05:19:10;;;;;;;;;;;;;;;22.74;31.15;98007.72;4887868;29;1202;-81
2021/10/17 05:21:39;;;;;;;;;;;;;;;22.80;30.69;98011.56;4890572;29;1426;-81
2021/10/17 05:24:04;;;;;;;;;;;;;;;22.71;30.88;98011.44;4888581;29;913;-81
2021/10/17 05:26:29;;;;;;;;;;;;;;;22.98;30.53;98019.53;4871262;29;1143;-81
2021/10/17 05:28:55;;;;;;;;;;;;;;;23.08;30.43;98023.28;4853758;29;928;-81
2021/10/17 05:31:20;;;;;;;;;;;;;;;23.00;30.17;98021.91;4871929;29;1076;-81
2021/10/17 05:33:46;;;;;;;;;;;;;;;22.79;30.15;98018.47;4869821;29;1915;-81
2021/10/17 05:36:13;;;;;;;;;;;;;;;22.70;30.16;98032.53;4871779;29;1204;-81
2021/10/17 05:38:42;;;;;;;;;;;;;;;22.42;30.71;98022.03;4854569;29;1287;-80
2021/10/17 05:41:08;;;;;;;;;;;;;;;22.42;30.64;98034.19;4889895;29;1181;-81
2021/10/17 05:43:34;;;;;;;;;;;;;;;22.19;31.12;98038.09;4905287;29;1468;-81
2021/10/17 05:46:01;;;;;;;;;;;;;;;22.29;30.77;98034.16;4891062;29;1456;-81
2021/10/17 05:48:26;;;;;;;;;;;;;;;22.42;30.92;98044.72;4891392;29;1170;-80
2021/10/17 05:50:52;;;;;;;;;;;;;;;22.36;31.15;98059.44;4924860;29;1156;-80
2021/10/17 05:53:18;;;;;;;;;;;;;;;22.14;32.07;98055.66;4912829;29;1896;-81
2021/10/17 05:55:43;;;;;;;;;;;;;;;22.53;31.54;98056.53;4931623;29;932;-81
2021/10/17 05:58:09;;;;;;;;;;;;;;;22.38;31.55;98055.38;4895999;29;1582;-81
2021/10/17 06:00:34;;;;;;;;;;;;;;;22.65;31.10;98069.97;4893162;29;1158;-80
2021/10/17 06:03:02;;;;;;;;;;;;;;;22.50;31.33;98063.13;4891694;29;1170;-81
2021/10/17 06:05:36;;;;;;;;;;;;;;;22.87;31.10;98064.44;4893057;29;934;-81
2021/10/17 06:08:02;;;;;;;;;;;;;;;22.66;31.25;98071.56;4882333;29;1214;-81
2021/10/17 06:10:29;;;;;;;;;;;;;;;22.69;31.29;98075.53;4926925;29;1124;-81
2021/10/17 06:12:55;;;;;;;;;;;;;;;23.06;30.32;98077.66;4926267;29;1978;-82
2021/10/17 06:15:20;;;;;;;;;;;;;;;22.99;30.53;98080.69;4910902;29;1125;-81
2021/10/17 06:17:46;;;;;;;;;;;;;;;23.13;30.00;98082.31;4965858;28;1114;-81
2021/10/17 06:20:11;;;;;;;;;;;;;;;22.98;30.02;98089.69;4954893;28;1269;-81
2021/10/17 06:22:41;;;;;;;;;;;;;;;22.63;30.21;98083.78;4933931;29;1094;-82
2021/10/17 06:25:07;;;;;;;;;;;;;;;22.46;30.89;98087.94;4952493;29;993;-80
2021/10/17 06:27:33;;;;;;;;;;;;;;;22.45;30.68;98089.19;4953063;29;1109;-81
2021/10/17 06:29:58;;;;;;;;;;;;;;;22.28;31.05;98089.25;4967139;28;1218;-81
2021/10/17 06:32:24;;;;;;;;;;;;;;;22.23;31.23;98089.81;4988316;28;1879;-81
2021/10/17 06:34:50;;;;;;;;;;;;;;;22.28;31.08;98092.09;4971129;28;1405;-81
2021/10/17 06:37:15;;;;;;;;;;;;;;;22.24;31.18;98102.72;4972673;28;1329;-81
2021/10/17 06:39:41;;;;;;;;;;;;;;;22.09;32.02;98095.84;4965960;29;952;-81
2021/10/17 06:42:12;;;;;;;;;;;;;;;22.07;32.60;98098.28;4952645;29;1230;-81
2021/10/17 06:44:56;;;;;;;;;;;;;;;22.67;31.53;98100.72;4966057;29;928;-81
2021/10/17 06:47:22;;;;;;;;;;;;;;;22.32;31.89;98095.59;4952781;29;1537;-81
2021/10/17 06:49:48;;;;;;;;;;;;;;;22.81;31.07;98106.75;4966652;29;1206;-81
2021/10/17 06:52:15;;;;;;;;;;;;;;;23.13;30.33;98105.03;4968387;29;1919;-80
2021/10/17 06:54:41;;;;;;;;;;;;;;;22.68;31.12;98108.75;4988202;28;1194;-81
2021/10/17 06:57:07;;;;;;;;;;;;;;;22.66;31.20;98111.25;4990709;28;1521;-81
2021/10/17 06:59:32;;;;;;;;;;;;;;;22.87;30.77;98104.94;5005246;28;822;-81
2021/10/17 07:01:59;;;;;;;;;;;;;;;22.85;30.88;98113.13;4991413;28;1198;-81
2021/10/17 07:04:24;;;;;;;;;;;;;;;23.00;30.05;98096.50;4985101;28;1238;-81
2021/10/17 07:06:50;;;;;;;;;;;;;;;22.76;30.23;98095.97;4987267;28;919;-81
2021/10/17 07:09:15;;;;;;;;;;;;;;;22.69;30.51;98110.38;4969982;28;1358;-81
2021/10/17 07:11:45;;;;;;;;;;;;;;;22.52;30.70;98117.34;4987458;28;1355;-81
2021/10/17 07:14:24;;;;;;;;;;;;;;;22.39;31.32;98108.81;4985585;28;1903;-80
2021/10/17 07:17:01;;;;;;;;;;;;;;;22.52;30.95;98111.66;5005919;28;1602;-81
2021/10/17 07:19:29;;;;;;;;;;;;;;;22.54;30.91;98118.50;5008565;28;1209;-81
2021/10/17 07:21:54;;;;;;;;;;;;;;;22.44;31.03;98111.09;5010641;28;1107;-80
2021/10/17 07:24:21;;;;;;;;;;;;;;;22.27;31.38;98110.31;5025149;28;1148;-80
2021/10/17 07:26:49;;;;;;;;;;;;;;;22.60;30.74;98115.91;5010015;28;1092;-81
2021/10/17 07:29:15;;;;;;;;;;;;;;;22.61;31.45;98121.13;5024918;28;783;-81
2021/10/17 07:31:40;;;;;;;;;;;;;;;22.66;31.53;98125.44;5026650;28;862;-81
2021/10/17 07:34:07;;;;;;;;;;;;;;;22.65;31.50;98115.34;5008018;28;1903;-81
2021/10/17 07:36:35;;;;;;;;;;;;;;;22.79;31.21;98120.59;5031263;28;1281;-80
2021/10/17 07:39:10;;;;;;;;;;;;;;;22.59;31.42;98122.81;5013717;28;1072;-80
2021/10/17 07:41:39;;;;;;;;;;;;;;;22.92;31.00;98125.53;5030585;28;1232;-80
2021/10/17 07:44:06;;;;;;;;;;;;;;;23.02;30.71;98130.09;5028428;28;1297;-81
2021/10/17 07:46:33;;;;;;;;;;;;;;;22.96;31.02;98138.38;5014081;28;1068;-81
2021/10/17 07:49:02;;;;;;;;;;;;;;;23.14;30.46;98129.31;5012145;28;1088;-80
2021/10/17 07:51:29;;;;;;;;;;;;;;;23.12;30.21;98137.50;5014438;28;1123;-81
2021/10/17 07:53:55;;;;;;;;;;;;;;;22.98;30.11;98143.59;5028723;28;1914;-81
2021/10/17 07:56:24;;;;;;;;;;;;;;;22.67;30.58;98141.22;5030615;28;1381;-81
2021/10/17 07:58:51;;;;;;;;;;;;;;;22.58;30.78;98138.22;4988244;28;1251;-80
2021/10/17 08:01:19;;;;;;;;;;;;;;;22.51;31.02;98138.44;5022302;28;1356;-81
2021/10/17 08:03:50;;;;;;;;;;;;;;;22.44;31.31;98141.50;5004894;28;861;-81
2021/10/17 08:06:32;;;;;;;;;;;;;;;22.43;31.13;98142.72;5020500;28;1034;-81
2021/10/17 08:08:59;;;;;;;;;;;;;;;22.44;31.03;98147.16;5004760;28;1248;-81
2021/10/17 08:11:24;;;;;;;;;;;;;;;22.43;31.13;98148.38;5023087;28;1158;-80
2021/10/17 08:13:50;;;;;;;;;;;;;;;22.29;31.24;98143.91;5020410;28;1886;-81
2021/10/17 08:16:22;;;;;;;;;;;;;;;22.28;31.67;98143.13;5020776;28;1198;-81
2021/10/17 08:18:54;;;;;;;;;;;;;;;22.31;32.05;98153.53;5020451;28;1272;-81
2021/10/17 08:21:20;;;;;;;;;;;;;;;22.07;32.75;98155.78;5022016;28;1160;-82
2021/10/17 08:23:55;;;;;;;;;;;;;;;22.50;32.27;98159.53;5002080;28;1270;-81
2021/10/17 08:26:23;;;;;;;;;;;;;;;22.52;31.72;98152.16;5005643;28;1269;-81
2021/10/17 08:28:49;;;;;;;;;;;;;;;22.99;31.22;98145.19;5007974;28;1192;-81
2021/10/17 08:31:20;;;;;;;;;;;;;;;22.86;30.97;98160.13;5008650;28;1484;-81
2021/10/17 08:33:46;;;;;;;;;;;;;;;23.25;30.31;98163.84;4991247;28;1983;-80
2021/10/17 08:36:13;;;;;;;;;;;;;;;23.11;30.35;98159.41;5009247;28;1152;-81
2021/10/17 08:38:40;;;;;;;;;;;;;;;23.25;30.26;98169.50;5006628;28;1253;-80
2021/10/17 08:41:06;;;;;;;;;;;;;;;23.00;30.59;98177.97;5009819;28;783;-81
2021/10/17 08:43:44;;;;;;;;;;;;;;;22.85;30.64;98174.75;5006520;28;1451;-81
2021/10/17 08:46:20;;;;;;;;;;;;;;;22.67;30.66;98175.25;5009666;28;1131;-81
2021/10/17 08:48:54;;;;;;;;;;;;;;;22.60;30.72;98178.28;4993100;28;1230;-81
2021/10/17 08:51:20;;;;;;;;;;;;;;;22.49;30.96;98191.97;4992789;28;1130;-81
2021/10/17 08:53:55;;;;;;;;;;;;;;;22.44;31.31;98184.81;4993511;28;1927;-82
2021/10/17 08:56:25;;;;;;;;;;;;;;;22.52;31.12;98188.22;5009180;28;1374;-81
2021/10/17 08:58:51;;;;;;;;;;;;;;;22.32;31.19;98200.50;5002471;28;1162;-81
2021/10/17 09:01:22;;;;;;;;;;;;;;;22.21;31.63;98193.50;4988487;28;1441;-81
2021/10/17 09:03:53;;;;;;;;;;;;;;;22.25;31.15;98197.84;5002865;28;812;-81
2021/10/17 09:06:20;;;;;;;;;;;;;;;22.25;31.87;98200.69;5005059;28;1190;-81
2021/10/17 09:09:04;;;;;;;;;;;;;;;22.01;32.82;98204.91;5002811;28;1516;-81
2021/10/17 09:11:49;;;;;;;;;;;;;;;22.29;32.18;98204.22;5004404;28;1145;-81
2021/10/17 09:14:24;;;;;;;;;;;;;;;22.90;31.16;98194.09;4986732;28;1981;-81
2021/10/17 09:16:50;;;;;;;;;;;;;;;22.74;31.21;98191.25;5005181;28;849;-81
2021/10/17 09:19:16;;;;;;;;;;;;;;;22.71;31.30;98190.13;5002869;28;862;-82
2021/10/17 09:21:52;;;;;;;;;;;;;;;23.15;30.40;98204.69;5004871;28;747;-81
2021/10/17 09:24:27;;;;;;;;;;;;;;;23.01;30.67;98200.25;4982914;28;994;-81
2021/10/17 09:27:23;;;;;;;;;;;;;;;23.21;30.37;98210.59;4988011;28;839;-80
2021/10/17 09:29:52;;;;;;;;;;;;;;;23.00;30.27;98203.53;4948747;29;1054;-81
2021/10/17 09:32:19;;;;;;;;;;;;;;;22.91;30.59;98201.34;4950797;29;1894;-81
2021/10/17 09:34:57;;;;;;;;;;;;;;;22.86;30.14;98199.84;4949485;29;1201;-81
2021/10/17 09:37:33;;;;;;;;;;;;;;;22.58;30.43;98200.63;4914053;29;924;-81
2021/10/17 09:40:21;;;;;;;;;;;;;;;22.45;31.02;98194.09;4893621;29;1037;-81
2021/10/17 09:43:13;;;;;;;;;;;;;;;22.55;30.74;98199.50;4890276;29;1035;-81
2021/10/17 09:46:08;;;;;;;;;;;;;;;22.47;30.66;98200.13;4879625;29;1272;-81
2021/10/17 09:48:34;;;;;;;;;;;;;;;22.50;30.78;98210.59;4872866;29;1158;-80
2021/10/17 09:51:00;;;;;;;;;;;;;;;22.36;30.80;98211.75;4875877;29;867;-81
2021/10/17 09:53:38;;;;;;;;;;;;;;;22.21;31.14;98208.47;4871866;29;1955;-81
2021/10/17 09:56:04;;;;;;;;;;;;;;;22.04;32.28;98201.22;4890670;29;1366;-81
2021/10/17 09:58:29;;;;;;;;;;;;;;;22.46;31.78;98215.53;4889842;29;844;-81
2021/10/17 10:00:55;;;;;;;;;;;;;;;22.71;30.97;98212.81;4897763;29;1074;-80
2021/10/17 10:03:21;;;;;;;;;;;;;;;22.65;31.22;98214.63;4899110;29;938;-81
2021/10/17 10:05:46;;;;;;;;;;;;;;;22.43;31.66;98216.41;4907231;29;951;-80
2021/10/17 10:08:12;;;;;;;;;;;;;;;22.74;30.98;98203.44;4945419;29;1002;-81
2021/10/17 10:10:38;;;;;;;;;;;;;;;22.56;31.32;98203.13;4991194;28;919;-81
2021/10/17 10:13:03;;;;;;;;;;;;;;;22.49;31.52;98209.78;5025805;28;1875;-81
2021/10/17 10:15:29;;;;;;;;;;;;;;;23.06;30.39;98201.75;5026254;28;1388;-81
2021/10/17 10:17:55;;;;;;;;;;;;;;;23.07;30.16;98203.34;5026796;28;1067;-81
2021/10/17 10:20:21;;;;;;;;;;;;;;;22.97;29.85;98198.75;5045495;28;810;-80
2021/10/17 10:22:47;;;;;;;;;;;;;;;22.72;30.29;98194.56;5046755;28;817;-80
2021/10/17 10:25:13;;;;;;;;;;;;;;;22.36;31.01;98200.41;5046163;28;1031;-81
2021/10/17 10:27:39;;;;;;;;;;;;;;;22.51;30.57;98195.16;5047609;28;983;-80
2021/10/17 10:30:20;;;;;;;;;;;;;;;22.34;30.99;98198.03;5025759;28;1000;-81
2021/10/17 10:33:21;;;;;;;;;;;;;;;22.40;30.97;98200.31;5026398;28;1961;-80
2021/10/17 10:36:06;;;;;;;;;;;;;;;22.26;31.05;98190.94;5008751;28;877;-81
2021/10/17 10:38:52;;;;;;;;;;;;;;;22.23;31.00;98203.19;5004808;28;1082;-81
2021/10/17 10:41:26;;;;;;;;;;;;;;;22.40;30.69;98200.31;5007472;28;866;-81
2021/10/17 10:43:52;;;;;;;;;;;;;;;22.14;32.12;98193.72;5004805;28;961;-81
2021/10/17 10:46:30;;;;;;;;;;;;;;;22.25;31.77;98199.91;5007555;28;862;-81
2021/10/17 10:48:55;;;;;;;;;;;;;;;22.35;32.01;98188.28;5005588;28;886;-81
2021/10/17 10:51:38;;;;;;;;;;;;;;;23.02;30.65;98195.38;4992294;28;858;-81
2021/10/17 10:54:04;;;;;;;;;;;;;;;22.97;30.82;98191.03;4994153;28;1940;-81
2021/10/17 10:56:44;;;;;;;;;;;;;;;23.17;30.47;98205.06;4939823;28;889;-81
2021/10/17 10:59:10;;;;;;;;;;;;;;;23.08;30.27;98202.06;4986103;28;720;-81
2021/10/17 11:01:54;;;;;;;;;;;;;;;23.20;30.34;98189.94;4986114;28;780;-81
2021/10/17 11:04:38;;;;;;;;;;;;;;;23.18;30.29;98198.13;5006132;28;951;-81
2021/10/17 11:07:29;;;;;;;;;;;;;;;22.73;30.96;98189.69;5007145;28;822;-81
2021/10/17 11:09:55;;;;;;;;;;;;;;;22.95;30.40;98184.22;5026349;28;1039;-81
2021/10/17 11:12:40;;;;;;;;;;;;;;;22.70;30.61;98187.75;5047528;28;1977;-82
2021/10/17 11:15:05;;;;;;;;;;;;;;;22.81;30.25;98180.53;5045487;28;1116;-81
2021/10/17 11:17:31;;;;;;;;;;;;;;;22.68;30.59;98182.50;5030700;28;889;-81
2021/10/17 11:19:56;;;;;;;;;;;;;;;22.57;30.86;98182.03;5045374;28;807;-81
2021/10/17 11:22:22;;;;;;;;;;;;;;;22.52;30.81;98179.72;5047461;28;746;-81
2021/10/17 11:24:53;;;;;;;;;;;;;;;22.41;31.05;98179.22;5044906;28;716;-81
2021/10/17 11:27:19;;;;;;;;;;;;;;;22.34;31.29;98177.38;5030867;28;1158;-81
2021/10/17 11:29:44;;;;;;;;;;;;;;;22.39;30.97;98178.88;5011889;28;1336;-81
2021/10/17 11:32:16;;;;;;;;;;;;;;;22.38;31.53;98180.09;5030567;28;769;-81
2021/10/17 11:34:41;;;;;;;;;;;;;;;22.38;31.91;98180.09;5028435;28;809;-81
2021/10/17 11:37:23;;;;;;;;;;;;;;;21.88;32.61;98173.69;5045753;28;907;-81
2021/10/17 11:39:57;;;;;;;;;;;;;;;22.79;31.05;98177.31;5028563;28;812;-81
2021/10/17 11:42:26;;;;;;;;;;;;;;;22.58;31.38;98183.59;5030343;28;805;-81
2021/10/17 11:44:51;;;;;;;;;;;;;;;22.31;31.86;98181.91;5045511;28;793;-82
2021/10/17 11:47:20;;;;;;;;;;;;;;;22.74;31.39;98177.91;5048718;28;801;-81
2021/10/17 11:49:47;;;;;;;;;;;;;;;23.17;30.28;98173.03;5044705;28;790;-81
2021/10/17 11:52:16;;;;;;;;;;;;;;;23.54;29.86;98177.16;5048135;28;698;-81
2021/10/17 11:54:42;;;;;;;;;;;;;;;23.02;30.71;98167.00;5045950;28;754;-81
2021/10/17 11:57:08;;;;;;;;;;;;;;;23.13;30.13;98167.47;5047461;28;955;-81
2021/10/17 11:59:33;;;;;;;;;;;;;;;22.86;30.59;98171.47;5045801;28;762;-81
2021/10/17 12:01:58;;;;;;;;;;;;;;;22.75;30.16;98162.47;5047849;28;743;-81
2021/10/17 12:04:40;;;;;;;;;;;;;;;22.59;30.64;98162.53;5047071;28;810;-81
2021/10/17 12:07:06;;;;;;;;;;;;;;;22.50;31.26;98159.53;5048471;28;904;-80
2021/10/17 12:09:32;;;;;;;;;;;;;;;22.49;30.83;98169.28;5045023;28;763;-81
2021/10/17 12:11:58;;;;;;;;;;;;;;;22.48;30.88;98167.69;5047715;28;758;-80
2021/10/17 12:14:27;;;;;;;;;;;;;;;22.38;31.25;98160.25;5043474;28;1934;-79
2021/10/17 12:16:56;;;;;;;;;;;;;;;22.43;31.02;98166.19;5030632;28;1219;-81
2021/10/17 12:19:26;;;;;;;;;;;;;;;22.42;31.06;98160.97;5045522;28;774;-80
2021/10/17 12:21:51;;;;;;;;;;;;;;;22.27;31.30;98154.88;5047650;28;801;-81
2021/10/17 12:24:21;;;;;;;;;;;;;;;22.41;31.11;98159.38;5044096;28;1195;-81
2021/10/17 12:26:55;;;;;;;;;;;;;;;22.52;31.50;98160.66;5030362;28;790;-81
2021/10/17 12:29:23;;;;;;;;;;;;;;;21.77;32.88;98168.28;5045714;28;904;-81
2021/10/17 12:31:52;;;;;;;;;;;;;;;22.24;32.46;98176.44;5047443;28;861;-81
2021/10/17 12:34:22;;;;;;;;;;;;;;;22.50;31.94;98170.88;5045090;28;1910;-81
2021/10/17 12:36:48;;;;;;;;;;;;;;;22.19;32.60;98168.47;5045845;28;780;-81
2021/10/17 12:39:13;;;;;;;;;;;;;;;22.77;31.52;98179.81;5043912;28;711;-81
2021/10/17 12:41:39;;;;;;;;;;;;;;;22.66;31.62;98185.00;5047243;28;830;-81
2021/10/17 12:44:08;;;;;;;;;;;;;;;22.94;30.89;98193.97;5044841;28;778;-81
2021/10/17 12:46:34;;;;;;;;;;;;;;;22.63;31.43;98185.88;5045472;28;893;-81
2021/10/17 12:49:09;;;;;;;;;;;;;;;23.10;30.22;98193.91;5045053;28;1004;-81
2021/10/17 12:51:40;;;;;;;;;;;;;;;22.84;30.33;98202.31;5047818;28;750;-81
2021/10/17 12:54:15;;;;;;;;;;;;;;;22.61;30.55;98202.56;5045975;28;1957;-81
2021/10/17 12:56:42;;;;;;;;;;;;;;;22.55;30.71;98210.84;5046820;28;793;-81
2021/10/17 12:59:08;;;;;;;;;;;;;;;22.44;30.88;98212.38;5046322;28;870;-81
2021/10/17 13:01:34;;;;;;;;;;;;;;;22.47;30.81;98208.63;5046482;28;900;-81
2021/10/17 13:04:12;;;;;;;;;;;;;;;22.37;31.04;98210.50;5044709;28;770;-81
2021/10/17 13:06:50;;;;;;;;;;;;;;;22.38;30.96;98214.13;5047302;28;774;-81
2021/10/17 13:09:15;;;;;;;;;;;;;;;22.32;31.15;98206.16;5044739;28;914;-80